Flight Track Log - Related Links

Times and Time Zones

All times are in EDT time to prevent confusion due to time zone crossing. See the N920AC flight status page for this flight to view local times or setup timezone preferences in your user account.

Time Position Orientation Groundspeed Altitude Reporting Facility
EDT Latitude Longitude Course Direction KTS MPH feet Rate Location/Type
Tue 01:31:16 PM 27.3833 -82.5500 180° South 78 90 600  Level Tampa TRACON
Tue 01:32:16 PM 27.3500 -82.5500 180° South 92 106 1,100 450 Climbing Tampa TRACON
Tue 01:33:16 PM 27.3333 -82.5667 222° Southwest 94 108 1,500 421 Climbing Tampa TRACON
Tue 01:34:10 PM 27.3167 -82.5667 180° South 96 110 1,900 400 Climbing Tampa TRACON
Tue 01:35:16 PM 27.2833 -82.5667 180° South 91 105 2,300 429 Climbing Tampa TRACON
Tue 01:36:00 PM 27.2624 -82.3957 138° Southeast  Level FlightAware Approximate
Tue 01:36:16 PM 27.2667 -82.5500 138° Southeast 81 93 2,800  Level Tampa TRACON
Tue 01:37:28 PM 27.2333 -82.5333 156° South 82 94 3,200 409 Climbing Tampa TRACON
Tue 01:38:28 PM 27.2167 -82.5333 180° South 81 93 3,700 429 Climbing Tampa TRACON
Tue 01:39:34 PM 27.2000 -82.5167 138° Southeast 83 96 4,100 368 Climbing Tampa TRACON
Tue 01:40:22 PM 27.1833 -82.5000 138° Southeast 83 96 4,400 353 Climbing Tampa TRACON
Tue 01:41:16 PM 27.1667 -82.5000 180° South 81 93 4,700 286 Climbing Tampa TRACON
Tue 01:42:28 PM 27.1500 -82.4667 119° Southeast 84 97 5,000 126 Climbing Tampa TRACON
Tue 01:43:39 PM 27.1183 -82.4569 165° South 84 97 5,000  Level Miami Center
Tue 01:44:41 PM 27.0944 -82.4436 154° Southeast 89 102 5,000  Level Miami Center
Tue 01:45:43 PM 27.0739 -82.4267 144° Southeast 89 102 5,000  Level Miami Center
Tue 01:46:44 PM 27.0533 -82.4061 138° Southeast 91 105 5,000  Level Miami Center
Tue 01:47:46 PM 27.0267 -82.3836 143° Southeast 96 110 5,000  Level Miami Center
Tue 01:48:48 PM 27.0039 -82.3678 148° Southeast 96 110 5,000 48 Level Miami Center
Tue 01:49:50 PM 26.9803 -82.3486 144° Southeast 97 112 5,100  Climbing Miami Center
Tue 01:50:51 PM 26.9569 -82.3333 150° Southeast 98 113 5,000 -49 Descending Miami Center
Tue 01:51:53 PM 26.9339 -82.3178 149° Southeast 98 113 5,000  Level Miami Center
Tue 01:52:55 PM 26.9072 -82.3028 153° Southeast 98 113 5,000  Level Miami Center
Tue 01:53:56 PM 26.8781 -82.2992 174° South 107 123 5,000  Level Miami Center
Tue 01:54:58 PM 26.8469 -82.2950 173° South 106 122 5,000  Level Miami Center
Tue 01:56:00 PM 26.8183 -82.2925 176° South 106 122 5,000  Level Miami Center
Tue 01:57:01 PM 26.7864 -82.2889 174° South 106 122 5,000  Level Miami Center
Tue 01:58:03 PM 26.7572 -82.2867 176° South 106 122 5,000  Level Miami Center
Tue 01:59:05 PM 26.7258 -82.2839 175° South 104 120 5,000  Level Miami Center
Tue 02:00:07 PM 26.6978 -82.2806 174° South 104 120 5,000  Level Miami Center
Tue 02:01:08 PM 26.6667 -82.2764 173° South 104 120 5,000  Level Miami Center
Tue 02:02:10 PM 26.6383 -82.2733 174° South 104 120 5,000  Level Miami Center
Tue 02:03:12 PM 26.6119 -82.2625 160° South 96 110 5,000  Level Miami Center
Tue 02:04:13 PM 26.5881 -82.2492 153° Southeast 95 109 5,000  Level Miami Center
Tue 02:05:15 PM 26.5639 -82.2322 148° Southeast 96 110 5,000  Level Miami Center
Tue 02:06:17 PM 26.5439 -82.2139 141° Southeast 93 107 5,000  Level Miami Center
Tue 02:07:18 PM 26.5247 -82.1933 136° Southeast 96 110 5,000  Level Miami Center
Tue 02:08:20 PM 26.5003 -82.1769 149° Southeast 96 110 5,000  Level Miami Center
Tue 02:09:22 PM 26.4764 -82.1625 152° Southeast 96 110 5,000  Level Miami Center
Tue 02:10:23 PM 26.4514 -82.1447 148° Southeast 97 112 5,000  Level Miami Center
Tue 02:11:25 PM 26.4292 -82.1300 149° Southeast 97 112 5,000  Level Miami Center
Tue 02:12:27 PM 26.4019 -82.1200 162° South 97 112 5,000  Level Miami Center
Tue 02:13:28 PM 26.3758 -82.1086 159° South 99 114 5,000 -49 Level Miami Center
Tue 02:14:30 PM 26.3544 -82.0889 140° Southeast 97 112 4,900 -97 Descending Miami Center
Tue 02:15:32 PM 26.3269 -82.0833 170° South 98 113 4,800 -341 Descending Miami Center
Tue 02:16:33 PM 26.2944 -82.0808 176° South 108 124 4,200 -537 Descending Miami Center
Tue 02:17:35 PM 26.2647 -82.0772 174° South 109 125 3,700 -484 Descending Miami Center
Tue 02:18:37 PM 26.2353 -82.0633 157° South 109 125 3,200 -537 Descending Miami Center
Tue 02:19:38 PM 26.2069 -82.0539 163° South 108 124 2,600 -537 Descending Miami Center
Tue 02:20:40 PM 26.1808 -82.0381 151° Southeast 108 124 2,100 -242 Descending Miami Center
Tue 02:21:42 PM 26.1542 -82.0258 158° South 99 114 2,100 48 Level Miami Center
Tue 02:22:44 PM 26.1286 -82.0153 160° South 98 113 2,200  Climbing Miami Center
Tue 02:23:45 PM 26.0992 -82.0028 159° South 101 116 2,100 -49 Descending Miami Center
Tue 02:24:47 PM 26.0700 -81.9975 171° South 106 122 2,100  Level Miami Center
Tue 02:25:49 PM 26.0472 -81.9769 141° Southeast 100 115 2,100  Level Miami Center
Tue 02:26:51 PM 26.0294 -81.9569 135° Southeast 96 110 2,100  Level Miami Center
Tue 02:27:53 PM 26.0136 -81.9314 125° Southeast 95 109 2,100  Level Miami Center
Tue 02:28:54 PM 26.0264 -81.9111 55° Northeast 90 104 2,100 -98 Level Miami Center
Tue 02:29:56 PM 26.0464 -81.8922 40° Northeast 91 105 1,900 -145 Descending Miami Center
Tue 02:30:58 PM 26.0664 -81.8728 41° Northeast 95 109 1,800 -48 Descending Miami Center
Tue 02:32:00 PM 26.0828 -81.8525 48° Northeast 86 99 1,800 -194 Level Miami Center
Tue 02:33:02 PM 26.0961 -81.8350 50° Northeast 79 91 1,400 -435 Descending Miami Center
Tue 02:34:04 PM 26.1136 -81.8175 42° Northeast 79 91 900 -439 Descending Miami Center
Tue 02:35:05 PM 26.1289 -81.8014 43° Northeast 79 91 500 -293 Descending Miami Center
Tue 02:36:07 PM 26.1444 -81.7836 46° Northeast 77 89 300 -194 Descending Miami Center

Login

Don't have an account? Register now (free) for customized features, flight alerts, and more!